Time;durP1;ratioP1;P1;durP2;ratioP2;P2;SDS_P1;SDS_P2;PMS_P1;PMS_P2;Temp;Humidity;BMP_temperature;BMP_pressure;BME280_temperature;BME280_humidity;BME280_pressure;Samples;Min_cycle;Max_cycle;Signal;HPM_P1;HPM_P2
2022/08/01 04:01:45;;;;;;;4.47;3.30;;;17.00;96.30;;;;;;5381316;23;20580;-74
2022/08/01 04:04:12;;;;;;;5.57;3.00;;;17.00;96.30;;;;;;4996893;28;20924;-74
2022/08/01 04:06:38;;;;;;;3.30;3.00;;;17.00;96.30;;;;;;5008994;28;20428;-75
2022/08/01 04:09:03;;;;;;;5.33;3.37;;;17.10;96.30;;;;;;5012356;28;20450;-75
2022/08/01 04:11:29;;;;;;;4.90;2.90;;;17.10;96.30;;;;;;5012776;28;20475;-75
2022/08/01 04:13:55;;;;;;;3.70;3.40;;;17.20;96.30;;;;;;5013292;28;20181;-76
2022/08/01 04:16:21;;;;;;;3.60;3.30;;;17.20;96.30;;;;;;5018997;28;20216;-76
2022/08/01 04:18:47;;;;;;;4.43;3.33;;;17.20;96.30;;;;;;5008747;28;20417;-76
2022/08/01 05:00:46;;;;;;;5.13;2.83;;;17.20;96.30;;;;;;5608598;23;20451;-76
2022/08/01 05:03:11;;;;;;;6.53;2.90;;;17.20;96.30;;;;;;4987762;28;20433;-76
2022/08/01 05:05:37;;;;;;;5.63;2.63;;;17.30;96.30;;;;;;5004056;28;20428;-76
2022/08/01 05:08:03;;;;;;;8.80;3.20;;;17.40;96.30;;;;;;4989450;28;20642;-75
2022/08/01 05:10:28;;;;;;;4.30;2.97;;;17.50;96.30;;;;;;5003419;28;20672;-76
2022/08/01 05:12:54;;;;;;;3.50;2.50;;;17.60;96.30;;;;;;5003477;28;20228;-76
2022/08/01 05:15:19;;;;;;;4.60;2.60;;;17.80;96.30;;;;;;4990709;28;20202;-77
2022/08/01 05:17:45;;;;;;;4.50;3.13;;;17.90;96.30;;;;;;4992420;28;20173;-76
2022/08/01 05:20:11;;;;;;;3.17;2.83;;;18.10;96.30;;;;;;4994492;28;20216;-76
2022/08/01 05:22:37;;;;;;;4.40;2.73;;;18.20;96.30;;;;;;4996298;28;20169;-77
2022/08/01 05:25:04;;;;;;;5.97;2.80;;;18.20;96.30;;;;;;4996308;28;20949;-77
2022/08/01 05:27:30;;;;;;;3.90;3.00;;;18.30;96.30;;;;;;4996123;28;20197;-76
2022/08/01 05:29:56;;;;;;;14.73;2.97;;;18.50;96.30;;;;;;4996454;28;20478;-79
2022/08/01 05:32:21;;;;;;;3.17;2.87;;;18.60;96.30;;;;;;4999669;28;20200;-79
2022/08/01 05:34:47;;;;;;;10.10;3.53;;;18.60;96.30;;;;;;4997396;28;20244;-77
2022/08/01 05:37:12;;;;;;;3.23;3.03;;;18.40;96.30;;;;;;4996242;28;20189;-77
2022/08/01 05:39:38;;;;;;;8.40;3.60;;;18.20;96.30;;;;;;4994205;28;20649;-76
2022/08/01 05:42:03;;;;;;;3.97;3.50;;;18.10;96.30;;;;;;5015299;28;20279;-77
2022/08/01 05:44:29;;;;;;;7.13;3.13;;;17.90;96.30;;;;;;5015601;28;20173;-76
2022/08/01 05:46:54;;;;;;;4.17;3.23;;;17.90;96.30;;;;;;5015529;28;20173;-75
2022/08/01 05:49:20;;;;;;;3.50;3.10;;;17.80;96.30;;;;;;5014916;28;20177;-78
2022/08/01 05:51:45;;;;;;;4.03;3.13;;;17.80;96.30;;;;;;5015417;28;20688;-76
2022/08/01 05:54:11;;;;;;;5.00;3.00;;;17.80;96.30;;;;;;4996749;28;20769;-77
2022/08/01 05:56:36;;;;;;;3.90;2.80;;;17.90;96.30;;;;;;4995361;28;20213;-77
2022/08/01 05:59:02;;;;;;;6.53;2.73;;;17.90;96.30;;;;;;4993597;28;20170;-76
2022/08/01 06:01:28;;;;;;;6.40;3.53;;;17.80;96.30;;;;;;4994670;28;20201;-77
2022/08/01 06:03:54;;;;;;;5.23;3.40;;;17.90;96.30;;;;;;4993995;28;20465;-77
2022/08/01 06:06:20;;;;;;;3.53;3.23;;;17.90;96.30;;;;;;4999416;28;20273;-78
2022/08/01 06:08:46;;;;;;;2.77;2.57;;;18.10;96.30;;;;;;5011307;28;20181;-78
2022/08/01 06:11:11;;;;;;;3.23;2.93;;;18.30;96.30;;;;;;5005445;28;20448;-77
2022/08/01 06:13:37;;;;;;;3.53;3.00;;;18.60;96.30;;;;;;4984971;28;20232;-77
2022/08/01 06:16:02;;;;;;;5.20;3.40;;;18.70;96.30;;;;;;4982930;28;20205;-77
2022/08/01 06:18:28;;;;;;;6.63;2.80;;;18.80;96.30;;;;;;4993845;28;20252;-77
2022/08/01 06:20:53;;;;;;;3.20;2.90;;;18.90;96.30;;;;;;4995396;28;20323;-77
2022/08/01 06:23:20;;;;;;;3.57;2.63;;;18.80;96.30;;;;;;4994877;28;20178;-77
2022/08/01 06:25:47;;;;;;;3.53;2.90;;;18.80;96.30;;;;;;4995204;28;20174;-77
2022/08/01 06:28:12;;;;;;;2.97;2.67;;;18.80;96.30;;;;;;4993695;28;21071;-76
2022/08/01 06:30:38;;;;;;;4.30;2.70;;;18.80;96.30;;;;;;4978560;28;20534;-77
2022/08/01 06:33:04;;;;;;;9.47;2.70;;;18.90;96.30;;;;;;4988458;28;20228;-77
2022/08/01 06:35:30;;;;;;;2.87;2.50;;;18.80;96.30;;;;;;4994891;28;20193;-76
2022/08/01 06:37:56;;;;;;;3.73;2.73;;;18.80;96.30;;;;;;4994649;28;20479;-76
2022/08/01 06:40:22;;;;;;;3.30;2.70;;;18.80;96.30;;;;;;5000696;28;20172;-76
2022/08/01 06:42:48;;;;;;;6.50;3.13;;;18.80;96.30;;;;;;5014368;28;20404;-76
2022/08/01 06:45:14;;;;;;;4.93;2.37;;;18.90;96.30;;;;;;5014437;28;20204;-77
2022/08/01 06:47:41;;;;;;;3.33;3.03;;;18.90;96.30;;;;;;5013124;28;20181;-77
2022/08/01 06:50:08;;;;;;;3.10;2.53;;;18.70;96.30;;;;;;5014377;28;20437;-77
2022/08/01 06:52:34;;;;;;;2.70;2.50;;;18.40;96.30;;;;;;4992459;28;20553;-77
2022/08/01 06:55:00;;;;;;;3.20;3.00;;;18.20;96.30;;;;;;4992353;28;20503;-76
2022/08/01 06:57:26;;;;;;;3.07;2.80;;;18.10;96.30;;;;;;4994372;28;20421;-77
2022/08/01 06:59:51;;;;;;;2.70;2.50;;;18.10;96.30;;;;;;4994784;28;20201;-77
2022/08/01 07:02:17;;;;;;;5.13;2.60;;;18.00;96.30;;;;;;4993360;28;20288;-77
2022/08/01 07:04:43;;;;;;;3.73;2.50;;;18.20;96.30;;;;;;4992549;28;20251;-78
2022/08/01 07:07:08;;;;;;;2.50;2.30;;;18.40;96.30;;;;;;4992609;28;20417;-76
2022/08/01 07:09:34;;;;;;;5.40;2.87;;;18.70;96.30;;;;;;4986183;28;20181;-77
2022/08/01 07:12:00;;;;;;;2.80;2.60;;;18.90;96.30;;;;;;4974784;28;20638;-76
2022/08/01 07:14:25;;;;;;;2.80;2.37;;;19.00;96.30;;;;;;4975111;28;20197;-79
2022/08/01 07:16:51;;;;;;;3.70;2.57;;;19.20;96.30;;;;;;4991928;28;20200;-77
2022/08/01 07:19:17;;;;;;;6.07;2.37;;;19.20;96.30;;;;;;4983940;28;20563;-78
2022/08/01 07:21:42;;;;;;;3.40;2.30;;;19.20;96.30;;;;;;4980189;28;20668;-76
2022/08/01 07:24:10;;;;;;;2.67;2.37;;;18.90;96.30;;;;;;4983796;28;20425;-76
2022/08/01 07:26:35;;;;;;;2.90;2.50;;;19.00;96.30;;;;;;4994243;28;20185;-77
2022/08/01 07:29:02;;;;;;;4.13;2.70;;;19.10;96.30;;;;;;4995471;28;20405;-78
2022/08/01 07:31:28;;;;;;;3.20;2.47;;;19.10;96.30;;;;;;4995331;28;20181;-77
2022/08/01 07:33:53;;;;;;;3.60;2.60;;;19.30;96.30;;;;;;4984530;28;20516;-78
2022/08/01 07:36:19;;;;;;;3.60;2.37;;;19.60;96.30;;;;;;4981883;28;20216;-77
2022/08/01 07:38:45;;;;;;;4.10;2.00;;;19.80;96.30;;;;;;4986978;28;20671;-77
2022/08/01 07:41:11;;;;;;;3.40;2.30;;;20.00;96.30;;;;;;5006010;28;20343;-77
2022/08/01 07:43:36;;;;;;;13.27;2.40;;;20.40;96.30;;;;;;5013200;28;20425;-77
2022/08/01 07:46:03;;;;;;;2.23;2.00;;;20.70;96.30;;;;;;5013450;28;20645;-76
2022/08/01 07:48:28;;;;;;;2.23;1.67;;;20.70;96.30;;;;;;4998852;28;20177;-76
2022/08/01 07:50:54;;;;;;;1.90;1.80;;;21.00;96.30;;;;;;4993796;28;20432;-77
2022/08/01 07:53:20;;;;;;;1.83;1.50;;;21.00;96.30;;;;;;4992229;28;20665;-77
2022/08/01 07:55:46;;;;;;;5.40;1.90;;;20.50;96.30;;;;;;4993313;28;20661;-78
2022/08/01 07:58:11;;;;;;;2.07;1.80;;;20.20;96.30;;;;;;4993227;28;20185;-79
2022/08/01 08:00:37;;;;;;;1.70;1.47;;;20.10;96.30;;;;;;4993849;28;20263;-79
2022/08/01 08:03:03;;;;;;;5.57;1.80;;;20.10;96.30;;;;;;4993917;28;20190;-79
2022/08/01 08:05:28;;;;;;;2.03;1.63;;;20.20;96.30;;;;;;4992450;28;20420;-79
2022/08/01 08:07:54;;;;;;;7.93;1.90;;;20.10;96.30;;;;;;4992782;28;20181;-81
2022/08/01 08:10:19;;;;;;;3.10;1.90;;;20.00;96.30;;;;;;5019781;28;20184;-81
2022/08/01 08:12:46;;;;;;;11.60;2.90;;;19.60;96.30;;;;;;5012930;28;20280;-80
2022/08/01 08:15:12;;;;;;;3.13;1.30;;;19.10;96.30;;;;;;5012015;28;20247;-80
2022/08/01 08:17:38;;;;;;;3.67;1.10;;;18.60;96.30;;;;;;5012745;28;20495;-81
2022/08/01 08:20:06;;;;;;;1.50;0.93;;;18.60;96.30;;;;;;5015458;28;20460;-81
2022/08/01 08:22:31;;;;;;;1.20;0.80;;;18.50;96.30;;;;;;5016007;28;20683;-80
2022/08/01 08:24:56;;;;;;;1.30;0.93;;;18.50;96.30;;;;;;5013845;28;20420;-81
2022/08/01 08:27:22;;;;;;;1.60;1.17;;;18.50;96.30;;;;;;5014342;28;20541;-82
2022/08/01 08:29:48;;;;;;;1.50;1.20;;;18.50;96.30;;;;;;4986813;28;20182;-82
2022/08/01 08:32:13;;;;;;;1.40;1.30;;;18.50;96.30;;;;;;4994244;28;20286;-80
2022/08/01 08:34:38;;;;;;;1.60;1.50;;;18.50;96.30;;;;;;4995895;28;20221;-83
2022/08/01 08:37:04;;;;;;;1.40;1.30;;;18.60;96.30;;;;;;4990876;28;20206;-81
2022/08/01 08:39:30;;;;;;;1.93;1.80;;;19.00;96.30;;;;;;4978389;28;20193;-82
2022/08/01 08:41:59;;;;;;;3.33;1.67;;;19.70;96.30;;;;;;4977571;28;20688;-82
2022/08/01 08:44:24;;;;;;;1.60;1.40;;;20.60;96.30;;;;;;4975149;28;20181;-82
2022/08/01 08:46:52;;;;;;;2.03;1.27;;;21.00;96.30;;;;;;4973757;28;20413;-81
2022/08/01 08:49:20;;;;;;;1.27;1.03;;;21.00;96.30;;;;;;4973383;28;20705;-82
2022/08/01 08:51:49;;;;;;;1.30;1.20;;;22.00;96.30;;;;;;4973179;28;20442;-81
2022/08/01 08:54:15;;;;;;;4.43;1.30;;;22.80;96.30;;;;;;4974000;28;20441;-80
2022/08/01 08:56:43;;;;;;;1.27;0.90;;;23.40;96.30;;;;;;4978740;28;20584;-81
2022/08/01 08:59:11;;;;;;;1.00;0.90;;;23.50;96.30;;;;;;4993682;28;20427;-81
2022/08/01 09:01:36;;;;;;;1.60;1.00;;;23.40;96.30;;;;;;4994440;28;20948;-81
2022/08/01 09:04:03;;;;;;;2.30;0.90;;;24.00;96.30;;;;;;4992207;28;20425;-81
2022/08/01 09:06:29;;;;;;;1.20;1.10;;;24.60;96.30;;;;;;4994006;28;20204;-80
2022/08/01 09:08:55;;;;;;;1.00;0.90;;;24.80;96.30;;;;;;4996464;28;20928;-81
2022/08/01 09:11:21;;;;;;;1.60;1.17;;;24.40;96.30;;;;;;4997514;28;21019;-80
2022/08/01 09:14:01;;;;;;;2.83;1.43;;;24.30;96.30;;;;;;4983437;28;20416;-80
2022/08/01 09:16:27;;;;;;;1.80;0.97;;;23.30;96.30;;;;;;5011307;28;20664;-81
2022/08/01 09:18:52;;;;;;;1.30;1.10;;;23.00;96.30;;;;;;4995759;28;20505;-81
2022/08/01 09:21:22;;;;;;;1.40;1.30;;;22.70;96.30;;;;;;4972742;28;20194;-81
2022/08/01 09:23:50;;;;;;;3.13;1.40;;;22.60;96.30;;;;;;4974330;28;20178;-81
2022/08/01 09:26:17;;;;;;;1.63;1.10;;;22.60;96.30;;;;;;4972204;28;20501;-80
2022/08/01 09:28:45;;;;;;;2.27;1.40;;;22.80;96.30;;;;;;4973242;28;20926;-81
2022/08/01 09:31:13;;;;;;;1.70;1.60;;;23.50;96.30;;;;;;4989415;28;20441;-79
2022/08/01 09:33:51;;;;;;;3.87;1.27;;;24.90;96.30;;;;;;4992371;28;20504;-80
2022/08/01 09:36:17;;;;;;;1.40;1.30;;;26.20;96.30;;;;;;4973152;28;20461;-80
2022/08/01 09:38:43;;;;;;;1.10;0.97;;;25.50;96.30;;;;;;4973115;28;20405;-80
2022/08/01 09:41:08;;;;;;;1.10;0.97;;;25.20;96.30;;;;;;4997825;28;20486;-80
2022/08/01 09:43:34;;;;;;;1.50;1.00;;;24.90;96.30;;;;;;5011163;28;20755;-81
2022/08/01 09:46:13;;;;;;;1.47;1.07;;;24.40;96.30;;;;;;5012381;28;20173;-80
2022/08/01 09:48:41;;;;;;;1.70;1.13;;;24.10;96.30;;;;;;5011901;28;20176;-81
2022/08/01 09:51:07;;;;;;;1.27;0.80;;;23.90;96.30;;;;;;5012645;28;20435;-81
2022/08/01 09:53:48;;;;;;;1.37;1.23;;;24.40;96.30;;;;;;5012125;28;20416;-80
2022/08/01 09:56:14;;;;;;;1.30;1.00;;;24.60;96.30;;;;;;4974513;28;20233;-81
2022/08/01 09:58:55;;;;;;;1.10;1.00;;;24.70;96.30;;;;;;4973037;28;20444;-81
2022/08/01 10:01:21;;;;;;;2.07;1.00;;;24.90;96.30;;;;;;4971798;28;20248;-79
2022/08/01 10:04:03;;;;;;;1.30;1.20;;;26.20;96.30;;;;;;4971790;28;20456;-79
2022/08/01 10:06:28;;;;;;;1.20;1.00;;;27.00;96.30;;;;;;4985312;28;20456;-80
2022/08/01 10:08:53;;;;;;;4.00;1.10;;;26.50;96.30;;;;;;4997996;28;20419;-78
2022/08/01 10:11:21;;;;;;;2.20;1.03;;;26.00;96.30;;;;;;5014715;28;20746;-79
2022/08/01 10:13:48;;;;;;;2.60;0.90;;;25.30;96.30;;;;;;4985344;28;20432;-79
2022/08/01 10:16:13;;;;;;;1.87;0.90;;;24.40;96.30;;;;;;4982838;28;20542;-78
2022/08/01 10:18:41;;;;;;;2.93;0.73;;;23.60;96.30;;;;;;4992030;28;20928;-79
2022/08/01 10:21:07;;;;;;;2.40;0.97;;;23.10;96.30;;;;;;4986294;28;20204;-78
2022/08/01 10:23:37;;;;;;;1.10;0.80;;;22.70;96.30;;;;;;4982995;28;20425;-79
2022/08/01 10:26:05;;;;;;;1.27;1.07;;;22.10;96.30;;;;;;4981958;28;20170;-79
2022/08/01 10:28:34;;;;;;;2.40;1.00;;;21.20;96.30;;;;;;4983764;28;20500;-79
2022/08/01 10:31:00;;;;;;;1.77;1.10;;;20.80;96.30;;;;;;4996329;28;20787;-77
2022/08/01 10:33:27;;;;;;;2.13;1.10;;;20.90;96.30;;;;;;4981448;28;20460;-77
2022/08/01 10:35:52;;;;;;;1.33;1.23;;;21.10;96.30;;;;;;4987377;28;20449;-77
2022/08/01 10:38:18;;;;;;;1.60;1.00;;;21.50;96.30;;;;;;4989910;28;20418;-77
2022/08/01 10:40:44;;;;;;;2.50;1.03;;;22.10;96.30;;;;;;4990222;28;20194;-78
2022/08/01 10:43:10;;;;;;;2.60;1.00;;;23.10;96.30;;;;;;4988008;28;20173;-77
2022/08/01 10:45:37;;;;;;;1.13;0.93;;;24.30;96.30;;;;;;4993275;28;20425;-77
2022/08/01 10:48:12;;;;;;;2.33;1.03;;;25.60;96.30;;;;;;4987210;28;20419;-78
2022/08/01 10:50:42;;;;;;;4.30;1.00;;;26.00;96.30;;;;;;4990208;28;20523;-78
2022/08/01 10:53:22;;;;;;;1.10;0.80;;;25.60;96.30;;;;;;4987740;28;20413;-78
2022/08/01 10:56:05;;;;;;;1.13;1.03;;;26.30;96.30;;;;;;4988188;28;20448;-77
2022/08/01 10:58:37;;;;;;;1.90;0.83;;;26.90;96.30;;;;;;4986276;28;20404;-77
2022/08/01 11:01:14;;;;;;;1.27;0.90;;;27.30;96.30;;;;;;4993402;28;20472;-76
2022/08/01 11:03:44;;;;;;;1.00;0.70;;;27.30;96.30;;;;;;4978991;28;20475;-78
2022/08/01 11:06:20;;;;;;;1.93;0.80;;;27.30;96.30;;;;;;4984018;28;20444;-78
2022/08/01 11:08:53;;;;;;;1.10;0.67;;;28.00;96.30;;;;;;4987473;28;20432;-79
2022/08/01 11:11:20;;;;;;;4.50;0.70;;;27.00;96.30;;;;;;4989923;28;20975;-79
2022/08/01 11:14:06;;;;;;;1.80;0.60;;;26.70;96.30;;;;;;4999424;28;20423;-78
2022/08/01 11:16:35;;;;;;;2.60;0.80;;;26.60;96.30;;;;;;4992535;28;20452;-79
2022/08/01 11:19:01;;;;;;;1.00;0.60;;;26.60;96.30;;;;;;4999035;28;20417;-77
2022/08/01 11:22:03;;;;;;;1.23;0.60;;;26.30;96.30;;;;;;4990013;28;20480;-78
2022/08/01 11:24:47;;;;;;;1.37;0.80;;;26.80;96.30;;;;;;4994163;28;20165;-78
2022/08/01 11:27:18;;;;;;;1.00;0.60;;;26.90;96.30;;;;;;4982312;28;20892;-78
2022/08/01 11:29:43;;;;;;;3.13;0.70;;;26.90;96.30;;;;;;4991922;28;20776;-78
2022/08/01 11:32:26;;;;;;;6.00;0.83;;;26.60;96.30;;;;;;5006346;28;20962;-79
2022/08/01 11:34:54;;;;;;;2.03;0.63;;;27.20;96.30;;;;;;5001169;28;20677;-77
2022/08/01 11:37:24;;;;;;;4.90;0.77;;;28.00;96.30;;;;;;5001820;28;20408;-77
2022/08/01 11:40:20;;;;;;;2.50;0.80;;;27.90;96.30;;;;;;4989527;28;20416;-76
2022/08/01 11:42:47;;;;;;;1.07;0.90;;;28.10;96.30;;;;;;5791297;23;21481;-65
2022/08/01 11:45:13;;;;;;;1.10;0.70;;;28.10;96.30;;;;;;4979761;28;20436;-64
2022/08/01 11:47:48;;;;;;;1.20;0.70;;;28.30;96.30;;;;;;4977643;28;20820;-64
2022/08/01 11:50:29;;;;;;;3.23;0.70;;;28.50;96.30;;;;;;4981923;28;20419;-65
2022/08/01 11:52:59;;;;;;;1.30;0.80;;;28.00;96.30;;;;;;4977471;28;20539;-64
2022/08/01 11:55:27;;;;;;;0.90;0.70;;;26.90;96.30;;;;;;4989474;28;20550;-64
2022/08/01 11:58:05;;;;;;;7.03;0.70;;;27.00;96.30;;;;;;4974121;28;20404;-64
2022/08/01 12:00:31;;;;;;;1.50;0.70;;;26.80;96.30;;;;;;4976092;28;20456;-64
2022/08/01 12:03:00;;;;;;;1.20;0.73;;;27.30;96.30;;;;;;4982815;28;20436;-64
2022/08/01 12:05:27;;;;;;;1.50;0.60;;;27.80;96.30;;;;;;4991180;28;20255;-65
2022/08/01 12:07:55;;;;;;;1.83;0.70;;;28.30;96.30;;;;;;4984897;28;20424;-66
2022/08/01 12:10:22;;;;;;;1.40;0.73;;;28.40;95.90;;;;;;4988769;28;20486;-66
2022/08/01 12:12:50;;;;;;;1.50;0.67;;;28.70;96.30;;;;;;4984939;28;20498;-64
2022/08/01 12:15:17;;;;;;;2.27;0.70;;;28.80;93.80;;;;;;4984507;28;20466;-65
2022/08/01 12:17:51;;;;;;;2.10;0.90;;;29.40;96.30;;;;;;4978646;28;20445;-65
2022/08/01 12:20:22;;;;;;;1.87;0.70;;;29.40;92.90;;;;;;4973356;28;20536;-64
2022/08/01 12:22:47;;;;;;;2.40;0.60;;;29.20;94.60;;;;;;4973940;28;20425;-65
2022/08/01 12:25:17;;;;;;;0.90;0.60;;;29.10;92.70;;;;;;4973613;28;20830;-65
2022/08/01 12:27:46;;;;;;;1.30;0.70;;;29.10;92.70;;;;;;4972701;28;20185;-64
2022/08/01 12:30:19;;;;;;;1.30;0.70;;;29.10;89.40;;;;;;4975226;28;20417;-64
2022/08/01 12:32:47;;;;;;;1.10;0.80;;;27.80;94.00;;;;;;4958831;28;20422;-64
2022/08/01 12:35:15;;;;;;;4.97;0.83;;;27.70;94.50;;;;;;4968527;28;20460;-64
2022/08/01 12:37:49;;;;;;;1.20;0.60;;;26.60;96.30;;;;;;4992966;28;20415;-64
2022/08/01 12:40:17;;;;;;;1.57;0.70;;;25.90;96.30;;;;;;4990369;28;20418;-65
2022/08/01 12:42:45;;;;;;;1.77;0.80;;;25.50;96.30;;;;;;4974186;28;20479;-65
2022/08/01 12:45:13;;;;;;;1.57;0.63;;;25.10;96.30;;;;;;4974950;28;20436;-65
2022/08/01 12:47:40;;;;;;;2.70;0.60;;;25.40;96.30;;;;;;4988154;28;20463;-65
2022/08/01 12:50:17;;;;;;;1.30;0.80;;;26.40;96.30;;;;;;4972045;28;20432;-65
2022/08/01 12:52:43;;;;;;;1.13;0.70;;;26.90;96.30;;;;;;4988014;28;20958;-65
2022/08/01 12:55:17;;;;;;;1.20;0.70;;;27.00;96.30;;;;;;4992451;28;20452;-65
2022/08/01 12:57:45;;;;;;;0.90;0.70;;;26.90;96.30;;;;;;4978713;28;20417;-66
2022/08/01 13:00:12;;;;;;;1.23;0.83;;;26.50;96.30;;;;;;4973011;28;20901;-65
2022/08/01 13:02:38;;;;;;;3.10;0.77;;;26.80;96.30;;;;;;4972588;28;20768;-65
2022/08/01 13:05:05;;;;;;;1.13;0.70;;;26.90;96.30;;;;;;4971793;28;20413;-66
2022/08/01 13:07:55;;;;;;;1.33;0.60;;;27.10;96.30;;;;;;4973072;28;20444;-65
2022/08/01 13:10:26;;;;;;;1.00;0.70;;;26.50;96.30;;;;;;4964676;28;20902;-65
2022/08/01 13:12:53;;;;;;;1.40;0.63;;;25.50;96.30;;;;;;4971966;28;20429;-64
2022/08/01 13:15:32;;;;;;;1.20;0.70;;;25.00;96.30;;;;;;4972310;28;20456;-65
2022/08/01 13:17:59;;;;;;;1.20;0.60;;;25.00;96.30;;;;;;4958243;28;20941;-64
2022/08/01 13:20:31;;;;;;;0.90;0.60;;;25.80;96.30;;;;;;4954919;28;20438;-65
2022/08/01 13:23:11;;;;;;;2.20;0.93;;;26.10;96.30;;;;;;4962879;28;20864;-65
2022/08/01 13:25:47;;;;;;;2.30;1.47;;;25.60;96.30;;;;;;4972908;28;20417;-65
2022/08/01 13:28:38;;;;;;;1.10;0.60;;;25.20;96.30;;;;;;4972839;28;20420;-65
2022/08/01 13:31:07;;;;;;;1.80;0.70;;;24.80;96.30;;;;;;4968699;28;21010;-65
2022/08/01 13:33:47;;;;;;;1.57;0.60;;;24.50;96.30;;;;;;4972733;28;20437;-64
2022/08/01 13:36:14;;;;;;;0.90;0.70;;;24.30;96.30;;;;;;4973009;28;20471;-64
2022/08/01 13:41:25;;;;;;;1.83;0.60;;;25.30;96.30;;;;;;4990932;28;20423;-64
2022/08/01 13:43:51;;;;;;;3.13;1.03;;;25.50;96.30;;;;;;4995794;28;20444;-64
2022/08/01 13:46:16;;;;;;;0.90;0.60;;;25.70;96.30;;;;;;4995873;28;20205;-65
2022/08/01 13:48:42;;;;;;;2.97;0.70;;;26.10;96.30;;;;;;4978142;28;20669;-65
2022/08/01 13:51:07;;;;;;;1.20;0.70;;;25.70;96.30;;;;;;4978259;28;20174;-65
2022/08/01 13:53:33;;;;;;;1.43;0.70;;;25.20;96.30;;;;;;4995671;28;20197;-65
2022/08/01 13:55:59;;;;;;;1.30;0.80;;;25.00;96.30;;;;;;4995504;28;20202;-65
2022/08/01 13:58:24;;;;;;;1.40;0.57;;;24.80;96.30;;;;;;4995392;28;20201;-65
2022/08/01 14:00:50;;;;;;;2.17;0.70;;;24.90;96.30;;;;;;4995624;28;20204;-65
2022/08/01 14:03:16;;;;;;;0.90;0.60;;;25.00;96.30;;;;;;4995575;28;20720;-65
2022/08/01 14:05:43;;;;;;;1.43;0.67;;;25.30;96.30;;;;;;4995456;28;20173;-65
2022/08/01 14:08:09;;;;;;;0.90;0.60;;;25.80;96.30;;;;;;4974983;28;20486;-65
2022/08/01 14:10:34;;;;;;;1.80;0.70;;;25.90;96.30;;;;;;4974193;28;20457;-65
2022/08/01 14:13:00;;;;;;;0.90;0.63;;;25.90;96.30;;;;;;4975708;28;20206;-65
2022/08/01 14:15:25;;;;;;;1.10;0.67;;;25.90;96.30;;;;;;4975779;28;20683;-65
2022/08/01 14:17:51;;;;;;;0.90;0.60;;;26.00;96.30;;;;;;4975590;28;20181;-65
2022/08/01 14:20:19;;;;;;;3.73;0.60;;;25.80;96.30;;;;;;4975837;28;20197;-65
2022/08/01 14:22:48;;;;;;;3.17;0.80;;;25.60;96.30;;;;;;4975575;28;20178;-65
2022/08/01 14:25:13;;;;;;;1.83;0.70;;;25.70;96.30;;;;;;4975575;28;20476;-65
2022/08/01 14:27:41;;;;;;;0.90;0.60;;;25.70;96.30;;;;;;4974426;28;20428;-64
2022/08/01 14:30:08;;;;;;;1.87;0.53;;;25.10;96.30;;;;;;4975384;28;20232;-64
2022/08/01 14:32:34;;;;;;;1.10;0.70;;;25.10;96.30;;;;;;4974867;28;20476;-65
2022/08/01 14:35:00;;;;;;;1.43;0.50;;;25.10;96.30;;;;;;4963731;28;20499;-64
2022/08/01 14:37:26;;;;;;;1.50;0.97;;;24.90;96.30;;;;;;4965850;28;20513;-65
2022/08/01 14:39:51;;;;;;;6.30;0.70;;;24.60;96.30;;;;;;4962054;28;20855;-65
2022/08/01 14:42:17;;;;;;;0.90;0.60;;;24.40;96.30;;;;;;4994878;28;20596;-64
2022/08/01 14:44:42;;;;;;;1.53;0.60;;;24.50;96.30;;;;;;4969293;28;20274;-65
2022/08/01 14:47:08;;;;;;;0.80;0.60;;;25.30;96.30;;;;;;4965983;28;20680;-65
2022/08/01 14:49:33;;;;;;;1.10;0.70;;;25.20;96.30;;;;;;4974915;28;20182;-65
2022/08/01 14:51:59;;;;;;;3.00;0.70;;;24.90;96.30;;;;;;4983053;28;20182;-65
2022/08/01 14:54:24;;;;;;;0.90;0.70;;;24.50;96.30;;;;;;4994211;28;20224;-65
2022/08/01 14:56:52;;;;;;;1.00;0.70;;;24.60;96.30;;;;;;4966376;28;20791;-65
2022/08/01 14:59:18;;;;;;;1.27;0.80;;;25.30;96.30;;;;;;4969274;28;20257;-64
2022/08/01 15:01:43;;;;;;;1.57;0.60;;;26.00;96.30;;;;;;4967148;28;20509;-64
2022/08/01 15:04:09;;;;;;;2.13;0.70;;;25.60;96.30;;;;;;4966998;28;20309;-64
2022/08/01 15:06:34;;;;;;;1.37;0.70;;;25.20;96.30;;;;;;4966514;28;20190;-65
2022/08/01 15:09:00;;;;;;;2.70;0.60;;;25.10;96.30;;;;;;4963352;28;20316;-65
2022/08/01 15:11:25;;;;;;;2.73;0.70;;;24.80;96.30;;;;;;4964865;28;20764;-65
2022/08/01 15:14:47;;;;;;;1.77;0.70;;;25.10;96.30;;;;;;4965173;28;20204;-64
2022/08/01 15:16:36;;;;;;;0.90;0.67;;;25.70;96.30;;;;;;4965787;28;20225;-64
2022/08/01 15:19:02;;;;;;;7.70;0.90;;;26.20;95.90;;;;;;4966065;28;20429;-65
2022/08/01 15:21:28;;;;;;;1.00;0.90;;;26.30;96.30;;;;;;4966568;28;20377;-64
2022/08/01 15:23:53;;;;;;;2.60;1.20;;;25.60;96.30;;;;;;4966500;28;20191;-64
2022/08/01 15:26:19;;;;;;;1.73;0.97;;;25.00;96.30;;;;;;4970730;28;20257;-65
2022/08/01 15:28:44;;;;;;;1.13;1.00;;;24.30;96.30;;;;;;4973928;28;20674;-64
2022/08/01 15:31:10;;;;;;;1.10;0.90;;;24.60;96.30;;;;;;4974527;28;20174;-65
2022/08/01 15:33:35;;;;;;;2.17;1.30;;;24.80;96.30;;;;;;4974373;28;20260;-67
2022/08/01 15:36:01;;;;;;;1.30;1.10;;;24.90;96.30;;;;;;4974291;28;20608;-64
2022/08/01 15:38:26;;;;;;;1.83;1.23;;;24.90;96.30;;;;;;4973864;28;20185;-64
2022/08/01 15:40:52;;;;;;;1.47;1.07;;;24.70;96.30;;;;;;4984193;28;20173;-65
2022/08/01 15:43:17;;;;;;;2.03;1.20;;;24.70;96.30;;;;;;4993477;28;20217;-64
2022/08/01 15:45:43;;;;;;;4.20;1.27;;;24.60;96.30;;;;;;4993602;28;20205;-65
2022/08/01 15:48:08;;;;;;;2.60;0.97;;;24.80;96.30;;;;;;4993333;28;20181;-65
2022/08/01 15:50:34;;;;;;;2.10;1.10;;;25.00;96.30;;;;;;4975918;28;20178;-65
2022/08/01 15:52:59;;;;;;;1.03;0.90;;;25.00;96.30;;;;;;4966824;28;20205;-65
2022/08/01 15:55:25;;;;;;;2.60;1.10;;;24.60;96.30;;;;;;4954581;28;20238;-64
2022/08/01 15:57:50;;;;;;;8.77;1.43;;;24.60;96.30;;;;;;4967101;28;20182;-65
2022/08/01 16:00:16;;;;;;;1.73;1.10;;;24.40;96.30;;;;;;4973852;28;20634;-64
2022/08/01 16:02:41;;;;;;;1.67;1.20;;;24.20;96.30;;;;;;4973427;28;20181;-64
2022/08/01 16:05:07;;;;;;;1.10;0.90;;;24.20;96.30;;;;;;4973608;28;20187;-63
2022/08/01 16:07:33;;;;;;;1.13;1.03;;;24.10;96.30;;;;;;4972650;28;20174;-65
2022/08/01 16:09:58;;;;;;;1.13;1.00;;;23.90;96.30;;;;;;4973446;28;20421;-64
2022/08/01 16:12:24;;;;;;;1.40;1.00;;;23.90;96.30;;;;;;4973840;28;20190;-64
2022/08/01 16:14:49;;;;;;;8.53;1.23;;;24.40;96.30;;;;;;4973554;28;20234;-64
2022/08/01 16:17:15;;;;;;;2.60;1.10;;;24.50;96.30;;;;;;4973402;28;20244;-64
2022/08/01 16:19:40;;;;;;;2.13;1.07;;;24.10;96.30;;;;;;4971955;28;20174;-64
2022/08/01 16:22:06;;;;;;;1.30;1.20;;;24.00;96.30;;;;;;4973638;28;20175;-64
2022/08/01 16:24:31;;;;;;;2.63;1.03;;;24.00;96.30;;;;;;4973499;28;20190;-64
2022/08/01 16:26:57;;;;;;;2.20;1.10;;;24.10;96.30;;;;;;4973628;28;20177;-64
2022/08/01 16:29:24;;;;;;;1.23;1.10;;;24.10;96.30;;;;;;4973363;28;20174;-64
2022/08/01 16:31:49;;;;;;;1.73;1.00;;;24.20;96.30;;;;;;4973586;28;20175;-65
2022/08/01 16:34:15;;;;;;;2.43;1.07;;;24.00;96.30;;;;;;4973208;28;20489;-64
2022/08/01 16:36:40;;;;;;;2.53;1.20;;;23.50;96.30;;;;;;4973112;28;20217;-65
2022/08/01 16:39:06;;;;;;;1.00;0.87;;;23.50;96.30;;;;;;4973289;28;20170;-65
2022/08/01 16:41:32;;;;;;;3.27;1.00;;;23.30;96.30;;;;;;4964042;28;20262;-65
2022/08/01 16:43:57;;;;;;;2.30;1.13;;;23.30;96.30;;;;;;4953859;28;20213;-66
2022/08/01 16:46:24;;;;;;;2.70;1.37;;;23.20;96.30;;;;;;4954039;28;20175;-66
2022/08/01 16:48:50;;;;;;;1.30;1.00;;;23.10;96.30;;;;;;4972808;28;20329;-66
2022/08/01 16:51:15;;;;;;;2.07;1.00;;;23.00;96.30;;;;;;4976252;28;20925;-65
2022/08/01 16:53:41;;;;;;;1.60;1.10;;;23.00;96.30;;;;;;4978937;28;20285;-65
2022/08/01 16:56:06;;;;;;;2.20;1.10;;;22.90;96.30;;;;;;4953864;28;20715;-64
2022/08/01 16:58:32;;;;;;;1.20;1.00;;;22.90;96.30;;;;;;4953661;28;20635;-65
2022/08/01 17:00:57;;;;;;;2.33;1.00;;;22.80;96.30;;;;;;4953965;28;20213;-65
2022/08/01 17:03:23;;;;;;;1.43;1.10;;;22.90;96.30;;;;;;4953754;28;20191;-65
2022/08/01 17:05:49;;;;;;;2.87;1.03;;;23.00;96.30;;;;;;4962066;28;20194;-71
2022/08/01 17:08:15;;;;;;;1.00;0.90;;;22.90;96.30;;;;;;4971414;28;20433;-64
2022/08/01 17:10:40;;;;;;;1.50;0.80;;;22.80;96.30;;;;;;4973176;28;20174;-64
2022/08/01 17:13:06;;;;;;;4.00;1.03;;;22.80;96.30;;;;;;4973118;28;20657;-65
2022/08/01 17:15:33;;;;;;;3.57;1.40;;;23.00;96.30;;;;;;4975728;28;20293;-64
2022/08/01 17:18:02;;;;;;;4.73;1.00;;;23.00;96.30;;;;;;4960428;28;20189;-64
2022/08/01 17:20:28;;;;;;;1.83;1.10;;;22.80;96.30;;;;;;4957584;28;20556;-65
2022/08/01 17:22:54;;;;;;;2.50;0.87;;;22.30;96.30;;;;;;4961414;28;20968;-64
2022/08/01 17:25:20;;;;;;;1.30;1.20;;;22.10;96.30;;;;;;4966134;28;20191;-64
2022/08/01 17:27:50;;;;;;;2.70;1.13;;;22.10;96.30;;;;;;4967589;28;21137;-64
2022/08/01 17:30:15;;;;;;;2.67;0.93;;;21.90;96.30;;;;;;4967225;28;20429;-64